sensor_id;sensor_type;location;lat;lon;timestamp;temperature;humidity
3727;DHT22;1879;45.876;12.300;2022-07-22T00:02:00;27.90;99.90
3727;DHT22;1879;45.876;12.300;2022-07-22T00:04:27;27.90;99.90
3727;DHT22;1879;45.876;12.300;2022-07-22T00:06:54;27.90;99.90
3727;DHT22;1879;45.876;12.300;2022-07-22T00:09:21;27.80;99.90
3727;DHT22;1879;45.876;12.300;2022-07-22T00:11:50;27.60;99.90
3727;DHT22;1879;45.876;12.300;2022-07-22T00:14:17;27.60;99.90
3727;DHT22;1879;45.876;12.300;2022-07-22T00:16:44;27.50;99.90
3727;DHT22;1879;45.876;12.300;2022-07-22T00:19:11;27.50;99.90
3727;DHT22;1879;45.876;12.300;2022-07-22T00:21:38;27.50;99.90
3727;DHT22;1879;45.876;12.300;2022-07-22T00:24:06;27.50;99.90
3727;DHT22;1879;45.876;12.300;2022-07-22T00:26:33;27.30;99.90
3727;DHT22;1879;45.876;12.300;2022-07-22T00:29:02;27.20;99.90
3727;DHT22;1879;45.876;12.300;2022-07-22T00:31:29;27.10;99.90
3727;DHT22;1879;45.876;12.300;2022-07-22T00:33:56;27.00;99.90
3727;DHT22;1879;45.876;12.300;2022-07-22T00:36:24;26.90;99.90
3727;DHT22;1879;45.876;12.300;2022-07-22T00:38:51;26.80;99.90
3727;DHT22;1879;45.876;12.300;2022-07-22T00:41:18;26.70;99.90
3727;DHT22;1879;45.876;12.300;2022-07-22T00:43:49;26.80;99.90
3727;DHT22;1879;45.876;12.300;2022-07-22T00:46:18;26.90;99.90
3727;DHT22;1879;45.876;12.300;2022-07-22T00:48:45;27.00;99.90
3727;DHT22;1879;45.876;12.300;2022-07-22T00:51:12;27.00;99.90
3727;DHT22;1879;45.876;12.300;2022-07-22T00:53:39;27.10;99.90
3727;DHT22;1879;45.876;12.300;2022-07-22T00:56:07;27.10;99.90
3727;DHT22;1879;45.876;12.300;2022-07-22T00:58:34;27.10;99.90
3727;DHT22;1879;45.876;12.300;2022-07-22T01:01:00;27.00;99.90
3727;DHT22;1879;45.876;12.300;2022-07-22T01:03:29;27.10;99.90
3727;DHT22;1879;45.876;12.300;2022-07-22T01:05:56;27.00;99.90
3727;DHT22;1879;45.876;12.300;2022-07-22T01:08:23;27.10;99.90
3727;DHT22;1879;45.876;12.300;2022-07-22T01:10:51;27.00;99.90
3727;DHT22;1879;45.876;12.300;2022-07-22T01:13:18;26.90;99.90
3727;DHT22;1879;45.876;12.300;2022-07-22T01:15:45;26.80;99.90
3727;DHT22;1879;45.876;12.300;2022-07-22T01:18:12;26.70;99.90
3727;DHT22;1879;45.876;12.300;2022-07-22T01:20:41;26.70;99.90
3727;DHT22;1879;45.876;12.300;2022-07-22T01:23:08;26.60;99.90
3727;DHT22;1879;45.876;12.300;2022-07-22T01:25:35;26.50;99.90
3727;DHT22;1879;45.876;12.300;2022-07-22T01:28:02;26.50;99.90
3727;DHT22;1879;45.876;12.300;2022-07-22T01:30:29;26.40;99.90
3727;DHT22;1879;45.876;12.300;2022-07-22T01:32:56;26.40;99.90
3727;DHT22;1879;45.876;12.300;2022-07-22T01:35:23;26.40;99.90
3727;DHT22;1879;45.876;12.300;2022-07-22T01:37:51;26.30;99.90
3727;DHT22;1879;45.876;12.300;2022-07-22T01:40:18;26.20;99.90
3727;DHT22;1879;45.876;12.300;2022-07-22T01:42:45;26.10;99.90
3727;DHT22;1879;45.876;12.300;2022-07-22T01:45:12;26.10;99.90
3727;DHT22;1879;45.876;12.300;2022-07-22T01:47:39;26.00;99.90
3727;DHT22;1879;45.876;12.300;2022-07-22T01:50:08;26.00;1.00
3727;DHT22;1879;45.876;12.300;2022-07-22T01:52:37;25.90;1.00
3727;DHT22;1879;45.876;12.300;2022-07-22T01:55:06;26.00;1.00
3727;DHT22;1879;45.876;12.300;2022-07-22T01:57:35;26.00;78.90
3727;DHT22;1879;45.876;12.300;2022-07-22T02:00:03;26.00;79.10
3727;DHT22;1879;45.876;12.300;2022-07-22T02:02:30;25.90;79.70
3727;DHT22;1879;45.876;12.300;2022-07-22T02:04:57;25.90;80.30
3727;DHT22;1879;45.876;12.300;2022-07-22T02:07:24;25.80;81.10
3727;DHT22;1879;45.876;12.300;2022-07-22T02:09:51;25.80;81.20
3727;DHT22;1879;45.876;12.300;2022-07-22T02:12:20;25.80;81.50
3727;DHT22;1879;45.876;12.300;2022-07-22T02:14:47;25.80;81.50
3727;DHT22;1879;45.876;12.300;2022-07-22T02:17:14;25.80;81.50
3727;DHT22;1879;45.876;12.300;2022-07-22T02:19:41;25.80;82.30
3727;DHT22;1879;45.876;12.300;2022-07-22T02:22:08;25.80;82.60
3727;DHT22;1879;45.876;12.300;2022-07-22T02:24:35;25.80;83.10
3727;DHT22;1879;45.876;12.300;2022-07-22T02:27:03;25.70;83.40
3727;DHT22;1879;45.876;12.300;2022-07-22T02:29:32;25.70;84.10
3727;DHT22;1879;45.876;12.300;2022-07-22T02:31:59;25.70;84.30
3727;DHT22;1879;45.876;12.300;2022-07-22T02:34:26;25.70;84.70
3727;DHT22;1879;45.876;12.300;2022-07-22T02:36:53;25.60;84.90
3727;DHT22;1879;45.876;12.300;2022-07-22T02:39:20;25.60;84.70
3727;DHT22;1879;45.876;12.300;2022-07-22T02:41:47;25.70;84.60
3727;DHT22;1879;45.876;12.300;2022-07-22T02:44:14;25.70;84.40
3727;DHT22;1879;45.876;12.300;2022-07-22T02:46:42;25.70;84.60
3727;DHT22;1879;45.876;12.300;2022-07-22T02:49:09;25.80;84.60
3727;DHT22;1879;45.876;12.300;2022-07-22T02:51:36;25.70;84.70
3727;DHT22;1879;45.876;12.300;2022-07-22T02:54:03;25.80;85.20
3727;DHT22;1879;45.876;12.300;2022-07-22T02:56:31;25.70;85.50
3727;DHT22;1879;45.876;12.300;2022-07-22T02:58:58;25.70;85.80
3727;DHT22;1879;45.876;12.300;2022-07-22T03:01:25;25.60;85.50
3727;DHT22;1879;45.876;12.300;2022-07-22T03:03:53;25.70;85.30
3727;DHT22;1879;45.876;12.300;2022-07-22T03:06:20;25.60;86.40
3727;DHT22;1879;45.876;12.300;2022-07-22T03:08:47;25.60;86.20
3727;DHT22;1879;45.876;12.300;2022-07-22T03:11:14;25.50;86.20
3727;DHT22;1879;45.876;12.300;2022-07-22T03:13:41;25.50;86.60
3727;DHT22;1879;45.876;12.300;2022-07-22T03:16:08;25.70;87.00
3727;DHT22;1879;45.876;12.300;2022-07-22T03:18:35;25.80;86.60
3727;DHT22;1879;45.876;12.300;2022-07-22T03:21:04;25.80;86.40
3727;DHT22;1879;45.876;12.300;2022-07-22T03:23:31;25.70;86.40
3727;DHT22;1879;45.876;12.300;2022-07-22T03:25:58;25.60;86.70
3727;DHT22;1879;45.876;12.300;2022-07-22T03:28:25;25.60;87.10
3727;DHT22;1879;45.876;12.300;2022-07-22T03:30:53;25.50;87.90
3727;DHT22;1879;45.876;12.300;2022-07-22T03:33:20;25.50;88.30
3727;DHT22;1879;45.876;12.300;2022-07-22T03:35:47;25.40;88.20
3727;DHT22;1879;45.876;12.300;2022-07-22T03:38:15;25.40;88.00
3727;DHT22;1879;45.876;12.300;2022-07-22T03:40:42;25.40;88.30
3727;DHT22;1879;45.876;12.300;2022-07-22T03:43:09;25.30;88.20
3727;DHT22;1879;45.876;12.300;2022-07-22T03:45:36;25.30;88.30
3727;DHT22;1879;45.876;12.300;2022-07-22T03:48:04;25.30;88.20
3727;DHT22;1879;45.876;12.300;2022-07-22T03:50:31;25.30;88.90
3727;DHT22;1879;45.876;12.300;2022-07-22T03:52:58;25.40;89.00
3727;DHT22;1879;45.876;12.300;2022-07-22T03:55:26;25.40;89.40
3727;DHT22;1879;45.876;12.300;2022-07-22T03:57:53;25.50;89.80
3727;DHT22;1879;45.876;12.300;2022-07-22T04:00:20;25.50;89.20
3727;DHT22;1879;45.876;12.300;2022-07-22T04:02:47;25.70;88.50
3727;DHT22;1879;45.876;12.300;2022-07-22T04:05:14;25.70;88.10
3727;DHT22;1879;45.876;12.300;2022-07-22T04:07:41;25.70;88.30
3727;DHT22;1879;45.876;12.300;2022-07-22T04:10:09;25.80;88.40
3727;DHT22;1879;45.876;12.300;2022-07-22T04:12:38;26.00;88.20
3727;DHT22;1879;45.876;12.300;2022-07-22T04:15:07;26.20;86.60
3727;DHT22;1879;45.876;12.300;2022-07-22T04:17:34;26.30;86.00
3727;DHT22;1879;45.876;12.300;2022-07-22T04:20:02;26.30;85.90
3727;DHT22;1879;45.876;12.300;2022-07-22T04:22:30;26.30;85.90
3727;DHT22;1879;45.876;12.300;2022-07-22T04:24:57;26.50;85.20
3727;DHT22;1879;45.876;12.300;2022-07-22T04:27:24;26.60;84.40
3727;DHT22;1879;45.876;12.300;2022-07-22T04:29:52;26.70;83.70
3727;DHT22;1879;45.876;12.300;2022-07-22T04:32:19;26.80;83.30
3727;DHT22;1879;45.876;12.300;2022-07-22T04:34:46;26.90;82.80
3727;DHT22;1879;45.876;12.300;2022-07-22T04:37:13;26.90;82.20
3727;DHT22;1879;45.876;12.300;2022-07-22T04:39:40;26.90;81.90
3727;DHT22;1879;45.876;12.300;2022-07-22T04:42:07;26.90;81.80
3727;DHT22;1879;45.876;12.300;2022-07-22T04:44:34;26.90;81.60
3727;DHT22;1879;45.876;12.300;2022-07-22T04:47:03;26.90;81.50
3727;DHT22;1879;45.876;12.300;2022-07-22T04:49:30;26.90;81.60
3727;DHT22;1879;45.876;12.300;2022-07-22T04:51:57;27.00;81.50
3727;DHT22;1879;45.876;12.300;2022-07-22T04:54:24;27.00;81.00
3727;DHT22;1879;45.876;12.300;2022-07-22T04:56:51;27.10;80.90
3727;DHT22;1879;45.876;12.300;2022-07-22T04:59:18;27.10;81.20
3727;DHT22;1879;45.876;12.300;2022-07-22T05:01:45;27.10;80.40
3727;DHT22;1879;45.876;12.300;2022-07-22T05:04:13;27.20;80.20
3727;DHT22;1879;45.876;12.300;2022-07-22T05:06:41;27.10;81.40
3727;DHT22;1879;45.876;12.300;2022-07-22T05:09:10;27.10;82.40
3727;DHT22;1879;45.876;12.300;2022-07-22T05:11:39;27.10;82.40
3727;DHT22;1879;45.876;12.300;2022-07-22T05:14:05;27.10;82.10
3727;DHT22;1879;45.876;12.300;2022-07-22T05:16:35;27.10;82.90
3727;DHT22;1879;45.876;12.300;2022-07-22T05:19:02;27.10;83.80
3727;DHT22;1879;45.876;12.300;2022-07-22T05:21:31;27.10;84.10
3727;DHT22;1879;45.876;12.300;2022-07-22T05:23:58;27.10;83.90
3727;DHT22;1879;45.876;12.300;2022-07-22T05:26:25;27.20;83.80
3727;DHT22;1879;45.876;12.300;2022-07-22T05:28:54;27.20;85.20
3727;DHT22;1879;45.876;12.300;2022-07-22T05:31:21;27.10;84.60
3727;DHT22;1879;45.876;12.300;2022-07-22T05:33:48;27.20;84.70
3727;DHT22;1879;45.876;12.300;2022-07-22T05:36:15;27.30;84.90
3727;DHT22;1879;45.876;12.300;2022-07-22T05:38:43;27.30;84.90
3727;DHT22;1879;45.876;12.300;2022-07-22T05:41:10;27.40;84.80
3727;DHT22;1879;45.876;12.300;2022-07-22T05:43:37;27.50;83.80
3727;DHT22;1879;45.876;12.300;2022-07-22T05:46:04;27.60;84.00
3727;DHT22;1879;45.876;12.300;2022-07-22T05:48:32;27.70;84.30
3727;DHT22;1879;45.876;12.300;2022-07-22T05:50:59;27.70;83.50
3727;DHT22;1879;45.876;12.300;2022-07-22T05:53:26;27.80;83.70
3727;DHT22;1879;45.876;12.300;2022-07-22T05:55:55;27.90;83.50
3727;DHT22;1879;45.876;12.300;2022-07-22T05:58:22;28.00;83.70
3727;DHT22;1879;45.876;12.300;2022-07-22T06:00:49;28.10;83.40
3727;DHT22;1879;45.876;12.300;2022-07-22T06:03:16;28.10;83.60
3727;DHT22;1879;45.876;12.300;2022-07-22T06:05:43;28.20;83.10
3727;DHT22;1879;45.876;12.300;2022-07-22T06:08:09;28.30;82.60
3727;DHT22;1879;45.876;12.300;2022-07-22T06:10:36;28.30;81.00
3727;DHT22;1879;45.876;12.300;2022-07-22T06:13:05;28.40;80.50
3727;DHT22;1879;45.876;12.300;2022-07-22T06:15:32;28.50;80.20
3727;DHT22;1879;45.876;12.300;2022-07-22T06:17:59;28.50;79.80
3727;DHT22;1879;45.876;12.300;2022-07-22T06:20:26;28.60;79.50
3727;DHT22;1879;45.876;12.300;2022-07-22T06:22:53;28.60;79.20
3727;DHT22;1879;45.876;12.300;2022-07-22T06:25:20;28.70;78.90
3727;DHT22;1879;45.876;12.300;2022-07-22T06:27:47;28.80;78.80
3727;DHT22;1879;45.876;12.300;2022-07-22T06:30:15;28.80;78.50
3727;DHT22;1879;45.876;12.300;2022-07-22T06:32:42;28.80;78.30
3727;DHT22;1879;45.876;12.300;2022-07-22T06:35:09;28.80;78.00
3727;DHT22;1879;45.876;12.300;2022-07-22T06:37:36;28.80;78.60
3727;DHT22;1879;45.876;12.300;2022-07-22T06:40:04;28.90;79.40
3727;DHT22;1879;45.876;12.300;2022-07-22T06:42:31;28.90;79.00
3727;DHT22;1879;45.876;12.300;2022-07-22T06:44:58;28.90;78.20
3727;DHT22;1879;45.876;12.300;2022-07-22T06:47:27;29.00;78.20
3727;DHT22;1879;45.876;12.300;2022-07-22T06:49:54;29.00;77.30
3727;DHT22;1879;45.876;12.300;2022-07-22T06:52:21;29.00;76.60
3727;DHT22;1879;45.876;12.300;2022-07-22T06:54:48;29.10;76.30
3727;DHT22;1879;45.876;12.300;2022-07-22T06:57:15;29.10;76.30
3727;DHT22;1879;45.876;12.300;2022-07-22T06:59:42;29.00;76.00
3727;DHT22;1879;45.876;12.300;2022-07-22T07:02:09;29.20;76.00
3727;DHT22;1879;45.876;12.300;2022-07-22T07:04:37;29.20;76.00
3727;DHT22;1879;45.876;12.300;2022-07-22T07:07:04;29.20;75.90
3727;DHT22;1879;45.876;12.300;2022-07-22T07:09:31;29.30;75.70
3727;DHT22;1879;45.876;12.300;2022-07-22T07:11:58;29.30;75.20
3727;DHT22;1879;45.876;12.300;2022-07-22T07:14:25;29.40;75.20
3727;DHT22;1879;45.876;12.300;2022-07-22T07:16:52;29.40;75.10
3727;DHT22;1879;45.876;12.300;2022-07-22T07:19:19;29.50;75.10
3727;DHT22;1879;45.876;12.300;2022-07-22T07:21:47;29.50;74.20
3727;DHT22;1879;45.876;12.300;2022-07-22T07:24:14;29.50;74.50
3727;DHT22;1879;45.876;12.300;2022-07-22T07:26:41;29.50;74.40
3727;DHT22;1879;45.876;12.300;2022-07-22T07:29:08;29.60;74.00
3727;DHT22;1879;45.876;12.300;2022-07-22T07:31:35;29.70;73.30
3727;DHT22;1879;45.876;12.300;2022-07-22T07:34:02;29.80;73.60
3727;DHT22;1879;45.876;12.300;2022-07-22T07:36:29;29.90;73.70
3727;DHT22;1879;45.876;12.300;2022-07-22T07:38:58;29.90;73.80
3727;DHT22;1879;45.876;12.300;2022-07-22T07:41:25;29.90;73.20
3727;DHT22;1879;45.876;12.300;2022-07-22T07:43:52;30.00;72.70
3727;DHT22;1879;45.876;12.300;2022-07-22T07:46:19;30.00;72.80
3727;DHT22;1879;45.876;12.300;2022-07-22T07:48:46;30.00;72.40
3727;DHT22;1879;45.876;12.300;2022-07-22T07:51:14;30.10;72.30
3727;DHT22;1879;45.876;12.300;2022-07-22T07:53:41;30.20;72.30
3727;DHT22;1879;45.876;12.300;2022-07-22T07:56:10;30.20;71.70
3727;DHT22;1879;45.876;12.300;2022-07-22T07:58:37;30.30;71.90
3727;DHT22;1879;45.876;12.300;2022-07-22T08:01:04;30.30;72.00
3727;DHT22;1879;45.876;12.300;2022-07-22T08:03:31;30.50;71.60
3727;DHT22;1879;45.876;12.300;2022-07-22T08:05:58;30.50;71.00
3727;DHT22;1879;45.876;12.300;2022-07-22T08:08:25;30.50;70.60
3727;DHT22;1879;45.876;12.300;2022-07-22T08:10:53;30.70;71.00
3727;DHT22;1879;45.876;12.300;2022-07-22T08:13:22;30.70;69.80
3727;DHT22;1879;45.876;12.300;2022-07-22T08:15:49;30.80;69.20
3727;DHT22;1879;45.876;12.300;2022-07-22T08:18:16;30.80;68.80
3727;DHT22;1879;45.876;12.300;2022-07-22T08:20:43;30.90;69.00
3727;DHT22;1879;45.876;12.300;2022-07-22T08:23:10;31.00;69.00
3727;DHT22;1879;45.876;12.300;2022-07-22T08:25:38;31.10;69.60
3727;DHT22;1879;45.876;12.300;2022-07-22T08:28:05;31.20;69.80
3727;DHT22;1879;45.876;12.300;2022-07-22T08:30:33;31.20;69.00
3727;DHT22;1879;45.876;12.300;2022-07-22T08:33:00;31.30;68.40
3727;DHT22;1879;45.876;12.300;2022-07-22T08:35:28;31.30;67.90
3727;DHT22;1879;45.876;12.300;2022-07-22T08:37:55;31.30;68.40
3727;DHT22;1879;45.876;12.300;2022-07-22T08:40:21;31.40;69.00
3727;DHT22;1879;45.876;12.300;2022-07-22T08:42:50;31.50;68.10
3727;DHT22;1879;45.876;12.300;2022-07-22T08:45:18;31.60;67.50
3727;DHT22;1879;45.876;12.300;2022-07-22T08:47:47;31.70;65.40
3727;DHT22;1879;45.876;12.300;2022-07-22T08:50:14;31.70;65.40
3727;DHT22;1879;45.876;12.300;2022-07-22T08:52:41;31.80;64.90
3727;DHT22;1879;45.876;12.300;2022-07-22T08:55:09;32.00;64.90
3727;DHT22;1879;45.876;12.300;2022-07-22T08:57:36;32.10;64.70
3727;DHT22;1879;45.876;12.300;2022-07-22T09:00:12;32.20;63.70
3727;DHT22;1879;45.876;12.300;2022-07-22T09:02:41;32.30;63.30
3727;DHT22;1879;45.876;12.300;2022-07-22T09:05:11;32.40;63.00
3727;DHT22;1879;45.876;12.300;2022-07-22T09:07:42;32.50;63.50
3727;DHT22;1879;45.876;12.300;2022-07-22T09:10:11;32.60;63.30
3727;DHT22;1879;45.876;12.300;2022-07-22T09:12:51;32.70;61.90
3727;DHT22;1879;45.876;12.300;2022-07-22T09:15:26;32.90;61.20
3727;DHT22;1879;45.876;12.300;2022-07-22T09:17:53;33.00;60.70
3727;DHT22;1879;45.876;12.300;2022-07-22T09:20:22;33.10;60.60
3727;DHT22;1879;45.876;12.300;2022-07-22T09:22:51;33.20;59.60
3727;DHT22;1879;45.876;12.300;2022-07-22T09:25:23;33.20;59.80
3727;DHT22;1879;45.876;12.300;2022-07-22T09:27:53;33.40;60.50
3727;DHT22;1879;45.876;12.300;2022-07-22T09:30:22;33.40;59.50
3727;DHT22;1879;45.876;12.300;2022-07-22T09:32:51;33.50;59.60
3727;DHT22;1879;45.876;12.300;2022-07-22T09:35:21;33.60;59.30
3727;DHT22;1879;45.876;12.300;2022-07-22T09:37:50;33.80;59.20
3727;DHT22;1879;45.876;12.300;2022-07-22T09:40:19;33.90;58.30
3727;DHT22;1879;45.876;12.300;2022-07-22T09:42:50;34.00;58.50
3727;DHT22;1879;45.876;12.300;2022-07-22T09:45:18;34.10;57.70
3727;DHT22;1879;45.876;12.300;2022-07-22T09:47:46;34.10;57.60
3727;DHT22;1879;45.876;12.300;2022-07-22T09:50:15;34.30;99.90
3727;DHT22;1879;45.876;12.300;2022-07-22T09:52:44;34.40;99.90
3727;DHT22;1879;45.876;12.300;2022-07-22T09:55:13;34.50;99.90
3727;DHT22;1879;45.876;12.300;2022-07-22T09:57:41;34.60;99.90
3727;DHT22;1879;45.876;12.300;2022-07-22T10:00:09;34.70;99.90
3727;DHT22;1879;45.876;12.300;2022-07-22T10:02:40;34.80;99.90
3727;DHT22;1879;45.876;12.300;2022-07-22T10:05:09;34.90;99.90
3727;DHT22;1879;45.876;12.300;2022-07-22T10:07:38;35.00;99.90
3727;DHT22;1879;45.876;12.300;2022-07-22T10:10:09;35.10;99.90
3727;DHT22;1879;45.876;12.300;2022-07-22T10:12:37;35.20;99.90
3727;DHT22;1879;45.876;12.300;2022-07-22T10:15:06;35.30;99.90
3727;DHT22;1879;45.876;12.300;2022-07-22T10:17:34;35.50;99.90
3727;DHT22;1879;45.876;12.300;2022-07-22T10:20:03;35.50;99.90
3727;DHT22;1879;45.876;12.300;2022-07-22T10:22:52;35.50;99.90
3727;DHT22;1879;45.876;12.300;2022-07-22T10:25:22;35.50;99.90
3727;DHT22;1879;45.876;12.300;2022-07-22T10:27:57;35.70;99.90
3727;DHT22;1879;45.876;12.300;2022-07-22T10:30:26;35.90;99.90
3727;DHT22;1879;45.876;12.300;2022-07-22T10:33:08;36.00;99.90
3727;DHT22;1879;45.876;12.300;2022-07-22T10:35:37;36.20;99.90
3727;DHT22;1879;45.876;12.300;2022-07-22T10:38:06;36.30;99.90
3727;DHT22;1879;45.876;12.300;2022-07-22T10:40:49;36.50;99.90
3727;DHT22;1879;45.876;12.300;2022-07-22T10:43:17;36.50;99.90
3727;DHT22;1879;45.876;12.300;2022-07-22T10:45:48;36.50;99.90
3727;DHT22;1879;45.876;12.300;2022-07-22T10:48:21;36.60;99.90
3727;DHT22;1879;45.876;12.300;2022-07-22T10:51:06;36.80;99.90
3727;DHT22;1879;45.876;12.300;2022-07-22T10:53:45;37.00;99.90
3727;DHT22;1879;45.876;12.300;2022-07-22T10:56:19;37.00;99.90
3727;DHT22;1879;45.876;12.300;2022-07-22T10:58:53;37.00;99.90
3727;DHT22;1879;45.876;12.300;2022-07-22T11:01:22;37.00;99.90
3727;DHT22;1879;45.876;12.300;2022-07-22T11:03:50;37.10;99.90
3727;DHT22;1879;45.876;12.300;2022-07-22T11:06:21;37.20;99.90
3727;DHT22;1879;45.876;12.300;2022-07-22T11:08:50;37.30;99.90
3727;DHT22;1879;45.876;12.300;2022-07-22T11:11:30;37.40;99.90
3727;DHT22;1879;45.876;12.300;2022-07-22T11:13:58;37.60;99.90
3727;DHT22;1879;45.876;12.300;2022-07-22T11:16:27;37.60;99.90
3727;DHT22;1879;45.876;12.300;2022-07-22T11:18:56;37.60;99.90
3727;DHT22;1879;45.876;12.300;2022-07-22T11:21:24;37.70;99.90
3727;DHT22;1879;45.876;12.300;2022-07-22T11:23:53;37.70;99.90
3727;DHT22;1879;45.876;12.300;2022-07-22T11:26:25;37.70;99.90
3727;DHT22;1879;45.876;12.300;2022-07-22T11:28:53;37.80;99.90
3727;DHT22;1879;45.876;12.300;2022-07-22T11:31:22;37.70;99.90
3727;DHT22;1879;45.876;12.300;2022-07-22T11:33:49;37.60;99.90
3727;DHT22;1879;45.876;12.300;2022-07-22T11:36:16;37.80;99.90
3727;DHT22;1879;45.876;12.300;2022-07-22T11:38:47;38.00;99.90
3727;DHT22;1879;45.876;12.300;2022-07-22T11:41:16;38.20;99.90
3727;DHT22;1879;45.876;12.300;2022-07-22T11:43:47;38.30;99.90
3727;DHT22;1879;45.876;12.300;2022-07-22T11:46:17;38.50;99.90
3727;DHT22;1879;45.876;12.300;2022-07-22T11:48:45;38.70;99.90
3727;DHT22;1879;45.876;12.300;2022-07-22T11:51:13;38.60;99.90
3727;DHT22;1879;45.876;12.300;2022-07-22T11:53:42;38.70;99.90
3727;DHT22;1879;45.876;12.300;2022-07-22T11:56:10;38.90;99.90
3727;DHT22;1879;45.876;12.300;2022-07-22T11:58:41;39.40;99.90
3727;DHT22;1879;45.876;12.300;2022-07-22T12:01:11;39.70;99.90
3727;DHT22;1879;45.876;12.300;2022-07-22T12:03:40;40.20;99.90
3727;DHT22;1879;45.876;12.300;2022-07-22T12:06:10;40.70;99.90
3727;DHT22;1879;45.876;12.300;2022-07-22T12:08:40;41.30;99.90
3727;DHT22;1879;45.876;12.300;2022-07-22T12:11:09;41.90;99.90
3727;DHT22;1879;45.876;12.300;2022-07-22T12:13:41;42.60;99.90
3727;DHT22;1879;45.876;12.300;2022-07-22T12:16:22;42.50;99.90
3727;DHT22;1879;45.876;12.300;2022-07-22T12:18:55;41.60;99.90
3727;DHT22;1879;45.876;12.300;2022-07-22T12:21:23;41.00;99.90
3727;DHT22;1879;45.876;12.300;2022-07-22T12:23:52;40.70;99.90
3727;DHT22;1879;45.876;12.300;2022-07-22T12:26:29;40.40;99.90
3727;DHT22;1879;45.876;12.300;2022-07-22T12:29:23;40.50;99.90
3727;DHT22;1879;45.876;12.300;2022-07-22T12:31:55;40.50;99.90
3727;DHT22;1879;45.876;12.300;2022-07-22T12:34:36;40.80;99.90
3727;DHT22;1879;45.876;12.300;2022-07-22T12:37:19;40.90;99.90
3727;DHT22;1879;45.876;12.300;2022-07-22T12:39:58;40.80;99.90
3727;DHT22;1879;45.876;12.300;2022-07-22T12:42:26;40.70;99.90
3727;DHT22;1879;45.876;12.300;2022-07-22T12:44:58;40.70;99.90
3727;DHT22;1879;45.876;12.300;2022-07-22T12:47:55;40.90;99.90
3727;DHT22;1879;45.876;12.300;2022-07-22T12:50:26;40.90;99.90
3727;DHT22;1879;45.876;12.300;2022-07-22T12:52:55;41.20;99.90
3727;DHT22;1879;45.876;12.300;2022-07-22T12:55:22;41.50;99.90
3727;DHT22;1879;45.876;12.300;2022-07-22T12:57:50;41.80;99.90
3727;DHT22;1879;45.876;12.300;2022-07-22T13:00:19;42.10;99.90
3727;DHT22;1879;45.876;12.300;2022-07-22T13:02:46;42.30;99.90
3727;DHT22;1879;45.876;12.300;2022-07-22T13:05:15;42.50;99.90
3727;DHT22;1879;45.876;12.300;2022-07-22T13:07:42;42.60;99.90
3727;DHT22;1879;45.876;12.300;2022-07-22T13:10:10;42.40;99.90
3727;DHT22;1879;45.876;12.300;2022-07-22T13:12:38;42.00;99.90
3727;DHT22;1879;45.876;12.300;2022-07-22T13:15:05;41.70;99.90
3727;DHT22;1879;45.876;12.300;2022-07-22T13:17:32;41.60;99.90
3727;DHT22;1879;45.876;12.300;2022-07-22T13:19:59;41.90;99.90
3727;DHT22;1879;45.876;12.300;2022-07-22T13:22:28;42.10;99.90
3727;DHT22;1879;45.876;12.300;2022-07-22T13:24:55;42.10;99.90
3727;DHT22;1879;45.876;12.300;2022-07-22T13:27:22;42.10;99.90
3727;DHT22;1879;45.876;12.300;2022-07-22T13:29:49;42.40;99.90
3727;DHT22;1879;45.876;12.300;2022-07-22T13:32:16;42.60;99.90
3727;DHT22;1879;45.876;12.300;2022-07-22T13:34:43;42.60;99.90
3727;DHT22;1879;45.876;12.300;2022-07-22T13:37:10;42.60;99.90
3727;DHT22;1879;45.876;12.300;2022-07-22T13:39:38;42.60;99.90
3727;DHT22;1879;45.876;12.300;2022-07-22T13:42:07;42.80;99.90
3727;DHT22;1879;45.876;12.300;2022-07-22T13:44:34;43.00;99.90
3727;DHT22;1879;45.876;12.300;2022-07-22T13:47:01;42.50;99.90
3727;DHT22;1879;45.876;12.300;2022-07-22T13:49:29;42.50;99.90
3727;DHT22;1879;45.876;12.300;2022-07-22T13:51:56;42.70;99.90
3727;DHT22;1879;45.876;12.300;2022-07-22T13:54:23;42.80;99.90
3727;DHT22;1879;45.876;12.300;2022-07-22T13:56:53;42.90;99.90
3727;DHT22;1879;45.876;12.300;2022-07-22T13:59:21;43.00;99.90
3727;DHT22;1879;45.876;12.300;2022-07-22T14:01:50;43.10;99.90
3727;DHT22;1879;45.876;12.300;2022-07-22T14:04:17;43.20;99.90
3727;DHT22;1879;45.876;12.300;2022-07-22T14:06:44;42.90;99.90
3727;DHT22;1879;45.876;12.300;2022-07-22T14:09:12;43.00;99.90
3727;DHT22;1879;45.876;12.300;2022-07-22T14:11:39;43.10;99.90
3727;DHT22;1879;45.876;12.300;2022-07-22T14:14:07;43.00;99.90
3727;DHT22;1879;45.876;12.300;2022-07-22T14:16:34;42.90;99.90
3727;DHT22;1879;45.876;12.300;2022-07-22T14:19:03;42.30;99.90
3727;DHT22;1879;45.876;12.300;2022-07-22T14:21:31;42.50;99.90
3727;DHT22;1879;45.876;12.300;2022-07-22T14:23:58;42.50;99.90
3727;DHT22;1879;45.876;12.300;2022-07-22T14:26:25;41.80;99.90
3727;DHT22;1879;45.876;12.300;2022-07-22T14:28:52;41.80;99.90
3727;DHT22;1879;45.876;12.300;2022-07-22T14:31:20;41.70;99.90
3727;DHT22;1879;45.876;12.300;2022-07-22T14:33:48;41.90;99.90
3727;DHT22;1879;45.876;12.300;2022-07-22T14:36:15;42.00;99.90
3727;DHT22;1879;45.876;12.300;2022-07-22T14:38:42;42.20;99.90
3727;DHT22;1879;45.876;12.300;2022-07-22T14:41:09;42.20;99.90
3727;DHT22;1879;45.876;12.300;2022-07-22T14:43:37;42.50;99.90
3727;DHT22;1879;45.876;12.300;2022-07-22T14:46:05;42.40;99.90
3727;DHT22;1879;45.876;12.300;2022-07-22T14:48:37;42.10;99.90
3727;DHT22;1879;45.876;12.300;2022-07-22T14:51:04;41.80;99.90
3727;DHT22;1879;45.876;12.300;2022-07-22T14:53:32;42.00;99.90
3727;DHT22;1879;45.876;12.300;2022-07-22T14:55:59;42.00;99.90
3727;DHT22;1879;45.876;12.300;2022-07-22T14:58:26;42.10;99.90
3727;DHT22;1879;45.876;12.300;2022-07-22T15:00:53;42.30;99.90
3727;DHT22;1879;45.876;12.300;2022-07-22T15:03:23;42.50;99.90
3727;DHT22;1879;45.876;12.300;2022-07-22T15:05:52;42.60;99.90
3727;DHT22;1879;45.876;12.300;2022-07-22T15:08:19;42.20;99.90
3727;DHT22;1879;45.876;12.300;2022-07-22T15:10:46;42.20;99.90
3727;DHT22;1879;45.876;12.300;2022-07-22T15:13:13;42.10;99.90
3727;DHT22;1879;45.876;12.300;2022-07-22T15:15:40;42.10;99.90
3727;DHT22;1879;45.876;12.300;2022-07-22T15:18:07;41.80;99.90
3727;DHT22;1879;45.876;12.300;2022-07-22T15:20:34;41.50;99.90
3727;DHT22;1879;45.876;12.300;2022-07-22T15:23:04;41.60;99.90
3727;DHT22;1879;45.876;12.300;2022-07-22T15:25:31;41.70;99.90
3727;DHT22;1879;45.876;12.300;2022-07-22T15:27:58;41.50;99.90
3727;DHT22;1879;45.876;12.300;2022-07-22T15:30:25;41.40;99.90
3727;DHT22;1879;45.876;12.300;2022-07-22T15:32:52;41.60;99.90
3727;DHT22;1879;45.876;12.300;2022-07-22T15:35:19;41.90;99.90
3727;DHT22;1879;45.876;12.300;2022-07-22T15:37:46;41.80;99.90
3727;DHT22;1879;45.876;12.300;2022-07-22T15:40:15;41.60;99.90
3727;DHT22;1879;45.876;12.300;2022-07-22T15:42:43;41.50;99.90
3727;DHT22;1879;45.876;12.300;2022-07-22T15:45:10;41.40;99.90
3727;DHT22;1879;45.876;12.300;2022-07-22T15:47:37;41.20;99.90
3727;DHT22;1879;45.876;12.300;2022-07-22T15:50:05;41.10;99.90
3727;DHT22;1879;45.876;12.300;2022-07-22T15:52:33;41.00;99.90
3727;DHT22;1879;45.876;12.300;2022-07-22T15:55:00;41.30;99.90